Time;durP1;ratioP1;P1;durP2;ratioP2;P2;SDS_P1;SDS_P2;PMS_P1;PMS_P2;Temp;Humidity;BMP_temperature;BMP_pressure;BME280_temperature;BME280_humidity;BME280_pressure;Samples;Min_cycle;Max_cycle;Signal;HPM_P1;HPM_P2
2022/12/27 00:01:43;;;;;;;8.35;2.67;;;3.60;99.90;;;;;;5044372;28;20135;-61
2022/12/27 00:04:09;;;;;;;9.98;2.72;;;3.60;99.90;;;;;;5045762;28;20513;-64
2022/12/27 00:06:35;;;;;;;8.98;2.60;;;3.50;99.90;;;;;;5045860;28;20036;-62
2022/12/27 00:09:01;;;;;;;6.78;2.63;;;3.50;99.90;;;;;;5045954;28;20049;-62
2022/12/27 00:11:28;;;;;;;12.40;3.42;;;3.60;99.90;;;;;;5049419;28;20076;-62
2022/12/27 00:13:57;;;;;;;11.10;2.92;;;3.50;99.90;;;;;;5049110;28;20725;-62
2022/12/27 00:16:23;;;;;;;8.25;2.80;;;3.60;99.90;;;;;;5045848;28;20052;-62
2022/12/27 00:18:49;;;;;;;9.20;2.95;;;3.60;99.90;;;;;;5050584;28;20128;-62
2022/12/27 00:21:16;;;;;;;9.15;2.55;;;3.60;99.90;;;;;;5051399;28;20060;-65
2022/12/27 00:23:44;;;;;;;11.90;2.63;;;3.70;99.90;;;;;;5049433;28;20049;-73
2022/12/27 00:26:13;;;;;;;12.02;2.80;;;3.70;99.90;;;;;;5047708;28;20262;-63
2022/12/27 00:28:38;;;;;;;13.05;2.92;;;3.70;99.90;;;;;;5052550;28;20044;-66
2022/12/27 00:31:05;;;;;;;11.65;2.50;;;3.80;99.90;;;;;;5052328;28;20049;-63
2022/12/27 00:33:33;;;;;;;13.65;2.70;;;3.70;99.90;;;;;;5050933;28;20053;-63
2022/12/27 00:36:00;;;;;;;12.80;3.45;;;3.70;99.90;;;;;;5047005;28;20421;-63
2022/12/27 00:38:26;;;;;;;11.80;2.65;;;3.60;99.90;;;;;;5045940;28;20052;-63
2022/12/27 00:40:52;;;;;;;7.22;2.45;;;3.70;99.90;;;;;;5053032;28;20053;-63
2022/12/27 00:43:17;;;;;;;9.32;2.50;;;3.80;99.90;;;;;;5051110;28;20114;-64
2022/12/27 00:45:44;;;;;;;12.45;3.45;;;3.70;99.90;;;;;;5050769;28;20482;-62
2022/12/27 00:48:10;;;;;;;12.55;3.28;;;3.70;99.90;;;;;;5052180;28;20053;-63
2022/12/27 00:50:38;;;;;;;12.82;2.65;;;3.60;99.90;;;;;;5051411;28;20474;-63
2022/12/27 00:53:04;;;;;;;13.52;2.75;;;3.60;99.90;;;;;;5048352;28;20041;-63
2022/12/27 00:55:29;;;;;;;9.23;2.85;;;3.60;99.90;;;;;;5043302;28;20491;-63
2022/12/27 00:57:55;;;;;;;16.08;3.33;;;3.70;99.90;;;;;;5045293;28;20440;-64
2022/12/27 01:00:20;;;;;;;20.00;3.17;;;3.60;99.90;;;;;;5046069;28;20052;-65
2022/12/27 01:02:46;;;;;;;16.85;3.25;;;3.60;99.90;;;;;;5073373;28;20049;-73
2022/12/27 01:05:12;;;;;;;10.88;2.67;;;3.60;99.90;;;;;;5051489;28;20033;-64
2022/12/27 01:07:38;;;;;;;9.05;2.58;;;3.60;99.90;;;;;;5047025;28;20080;-64
2022/12/27 01:10:04;;;;;;;10.68;3.17;;;3.70;99.90;;;;;;5052543;28;20448;-63
2022/12/27 01:12:30;;;;;;;10.63;2.75;;;3.70;99.90;;;;;;5059421;28;20040;-68
2022/12/27 01:14:55;;;;;;;9.10;2.13;;;3.80;99.90;;;;;;5052807;28;20094;-67
2022/12/27 01:17:21;;;;;;;14.10;3.10;;;3.80;99.90;;;;;;5050304;28;20143;-63
2022/12/27 01:19:47;;;;;;;14.05;3.08;;;3.80;99.90;;;;;;5051720;28;20052;-63
2022/12/27 01:22:12;;;;;;;10.07;2.65;;;3.90;99.90;;;;;;5052461;28;20463;-63
2022/12/27 01:24:38;;;;;;;16.38;3.10;;;3.90;99.90;;;;;;5051673;28;20363;-63
2022/12/27 01:27:03;;;;;;;14.95;3.17;;;3.90;99.90;;;;;;5047766;28;20069;-64
2022/12/27 01:29:29;;;;;;;12.00;2.63;;;3.90;99.90;;;;;;5046927;28;20049;-63
2022/12/27 01:31:55;;;;;;;12.55;2.83;;;3.90;99.90;;;;;;5055694;28;20051;-64
2022/12/27 01:34:21;;;;;;;11.52;2.78;;;4.00;99.90;;;;;;5061096;28;20059;-63
2022/12/27 01:36:46;;;;;;;12.32;3.08;;;3.90;99.90;;;;;;5051226;28;20116;-63
2022/12/27 01:39:12;;;;;;;11.00;3.00;;;4.00;99.90;;;;;;5041616;28;20077;-63
2022/12/27 01:44:48;;;;;;;11.35;3.00;;;4.10;99.90;;;;;;5042850;28;20461;-64
2022/12/27 01:47:38;;;;;;;10.70;3.25;;;4.20;99.90;;;;;;5050098;28;20096;-64
2022/12/27 01:50:27;;;;;;;14.10;2.80;;;4.30;99.90;;;;;;5049381;28;20110;-63
2022/12/27 01:53:11;;;;;;;12.07;3.05;;;4.20;99.90;;;;;;5045415;28;20037;-74
2022/12/27 01:56:05;;;;;;;16.20;3.38;;;4.30;99.90;;;;;;5084742;28;20095;-63
2022/12/27 01:58:39;;;;;;;9.82;2.70;;;4.30;99.90;;;;;;5048307;28;20049;-68
2022/12/27 02:01:09;;;;;;;13.10;2.67;;;4.30;99.90;;;;;;5083821;28;20166;-63
2022/12/27 02:03:42;;;;;;;9.38;2.63;;;4.40;99.90;;;;;;5050942;28;20056;-63
2022/12/27 02:06:11;;;;;;;10.80;2.65;;;4.30;99.90;;;;;;5049459;28;20048;-63
2022/12/27 02:09:01;;;;;;;15.40;3.08;;;4.40;99.90;;;;;;5051786;28;20463;-71
2022/12/27 02:14:29;;;;;;;12.27;2.60;;;4.40;99.90;;;;;;5049865;28;20120;-64
2022/12/27 02:16:58;;;;;;;7.53;2.30;;;4.40;99.90;;;;;;5052009;28;20040;-65
2022/12/27 02:19:38;;;;;;;11.00;2.72;;;4.50;99.90;;;;;;5051342;28;20044;-63
2022/12/27 02:22:27;;;;;;;10.05;3.13;;;4.50;99.90;;;;;;5051308;28;20045;-63
2022/12/27 02:25:06;;;;;;;12.63;3.17;;;4.50;99.90;;;;;;5045932;28;20072;-63
2022/12/27 02:28:29;;;;;;;7.20;2.58;;;4.60;99.90;;;;;;5050626;28;20502;-73
2022/12/27 02:31:05;;;;;;;12.15;3.25;;;4.60;99.90;;;;;;5042927;28;20047;-64
2022/12/27 02:33:36;;;;;;;14.63;2.92;;;4.60;99.90;;;;;;5049405;28;20061;-63
2022/12/27 02:36:09;;;;;;;13.82;3.28;;;4.60;99.90;;;;;;5044008;28;20052;-68
2022/12/27 02:38:38;;;;;;;12.85;3.00;;;4.60;99.90;;;;;;5051683;28;20148;-63
2022/12/27 02:55:24;;;;;;;;;;;4.40;99.90;;;;;;5052239;28;20051;-64
2022/12/27 02:58:26;;;;;;;15.90;3.05;;;4.40;99.90;;;;;;5051565;28;19982;-67
2022/12/27 03:04:11;;;;;;;10.13;2.90;;;4.40;99.90;;;;;;5050231;28;20437;-63
2022/12/27 03:06:42;;;;;;;;;;;4.50;99.90;;;;;;5050582;28;20398;-64
2022/12/27 03:09:11;;;;;;;16.58;3.30;;;4.50;99.90;;;;;;5046321;28;19988;-63
2022/12/27 03:17:33;;;;;;;12.23;2.88;;;4.50;99.90;;;;;;5052267;28;20064;-63
2022/12/27 03:25:38;;;;;;;18.67;3.83;;;4.40;99.90;;;;;;5049714;28;20170;-63
2022/12/27 03:33:49;;;;;;;12.38;2.88;;;4.50;99.90;;;;;;5047467;28;20460;-64
2022/12/27 03:39:12;;;;;;;19.67;4.22;;;4.50;99.90;;;;;;5039986;28;20131;-67
2022/12/27 03:44:38;;;;;;;11.73;2.78;;;4.60;99.90;;;;;;5046140;28;20060;-64
2022/12/27 03:47:10;;;;;;;9.75;2.75;;;4.40;99.90;;;;;;5048739;28;20044;-64
2022/12/27 03:49:44;;;;;;;11.23;2.95;;;4.40;99.90;;;;;;5048220;28;20102;-67
2022/12/27 03:52:24;;;;;;;9.15;2.80;;;4.40;99.90;;;;;;5047014;28;20049;-74
2022/12/27 03:54:50;;;;;;;8.40;2.35;;;4.40;99.90;;;;;;5047354;28;20044;-63
2022/12/27 03:57:19;;;;;;;10.27;3.17;;;4.30;99.90;;;;;;5078451;28;20044;-64
2022/12/27 03:59:45;;;;;;;10.20;2.55;;;4.40;99.90;;;;;;5048198;28;20592;-63
2022/12/27 04:02:11;;;;;;;11.82;3.10;;;4.60;99.90;;;;;;5045867;28;20049;-74
2022/12/27 04:04:37;;;;;;;14.73;3.72;;;4.20;99.90;;;;;;5042970;28;20064;-64
2022/12/27 04:07:04;;;;;;;12.20;3.63;;;4.20;99.90;;;;;;5043580;28;20475;-64
2022/12/27 04:36:53;;;;;;;16.95;3.45;;;4.20;99.90;;;;;;5049922;28;20045;-63
2022/12/27 04:39:19;;;;;;;13.65;2.80;;;4.10;99.90;;;;;;5050336;28;20056;-64
2022/12/27 04:55:31;;;;;;;;;;;4.60;99.90;;;;;;5050097;28;20075;-65
2022/12/27 04:57:57;;;;;;;9.07;2.70;;;4.30;99.90;;;;;;5049607;28;20358;-63
2022/12/27 05:03:15;;;;;;;14.27;2.50;;;4.20;99.90;;;;;;5053768;28;20053;-63
2022/12/27 05:05:43;;;;;;;12.45;3.17;;;4.10;99.90;;;;;;5053069;28;20054;-63
2022/12/27 05:16:23;;;;;;;10.80;2.88;;;4.00;99.90;;;;;;5052776;28;20144;-66
2022/12/27 05:18:49;;;;;;;14.80;3.67;;;3.90;99.90;;;;;;5051049;28;20163;-64
2022/12/27 05:21:15;;;;;;;21.92;3.92;;;3.90;99.90;;;;;;5056321;28;20087;-64
2022/12/27 05:26:27;;;;;;;15.90;3.88;;;4.00;99.90;;;;;;5042489;28;20160;-75
2022/12/27 05:28:55;;;;;;;18.20;4.07;;;3.90;99.90;;;;;;5038926;28;20045;-65
2022/12/27 05:31:22;;;;;;;20.20;4.93;;;3.90;99.90;;;;;;5052149;28;20051;-64
2022/12/27 05:33:49;;;;;;;20.15;4.95;;;3.80;99.90;;;;;;5047159;28;20072;-64
2022/12/27 05:36:14;;;;;;;17.63;5.07;;;3.80;99.90;;;;;;5046210;28;20128;-66
2022/12/27 05:38:40;;;;;;;22.02;5.47;;;3.90;99.90;;;;;;5081303;28;20168;-64
2022/12/27 05:41:06;;;;;;;9.43;3.38;;;3.80;99.90;;;;;;5051972;28;20483;-64
2022/12/27 05:43:33;;;;;;;14.02;3.30;;;3.90;99.90;;;;;;5050561;28;20124;-67
2022/12/27 05:46:13;;;;;;;14.48;3.95;;;3.90;99.90;;;;;;5068344;28;20041;-64
2022/12/27 05:48:39;;;;;;;16.95;3.53;;;;;;;;;;5042204;28;20042;-64
2022/12/27 05:51:07;;;;;;;13.23;3.25;;;;;;;;;;5081139;28;20045;-64
2022/12/27 05:53:33;;;;;;;15.90;3.47;;;;;;;;;;5047300;28;20049;-64
2022/12/27 05:55:59;;;;;;;15.07;3.30;;;;;;;;;;5048039;28;20048;-63
2022/12/27 05:58:26;;;;;;;16.08;3.25;;;;;;;;;;5036223;28;20386;-65
2022/12/27 06:00:52;;;;;;;14.98;3.60;;;;;;;;;;5049638;28;20044;-64
2022/12/27 06:03:18;;;;;;;16.00;3.72;;;;;;;;;;5049073;28;20053;-64
2022/12/27 06:05:44;;;;;;;13.55;3.33;;;;;;;;;;5042765;28;20036;-65
2022/12/27 06:08:11;;;;;;;22.40;4.50;;;;;;;;;;5048401;28;20060;-63
2022/12/27 06:10:37;;;;;;;18.00;4.13;;;;;;;;;;5048507;28;20048;-68
2022/12/27 06:13:03;;;;;;;17.85;4.28;;;;;;;;;;5051777;28;20432;-63
2022/12/27 06:15:29;;;;;;;16.63;4.88;;;;;;;;;;5053557;28;20040;-75
2022/12/27 06:17:56;;;;;;;16.45;4.75;;;;;;;;;;5051324;28;20033;-65
2022/12/27 06:20:22;;;;;;;20.23;5.65;;;;;;;;;;5051080;28;20360;-64
2022/12/27 06:22:48;;;;;;;18.98;5.90;;;;;;;;;;5050755;28;20398;-64
2022/12/27 06:25:14;;;;;;;16.35;5.00;;;;;;;;;;5052973;28;20037;-66
2022/12/27 06:27:40;;;;;;;20.67;4.65;;;;;;;;;;5050753;28;20441;-63
2022/12/27 06:30:07;;;;;;;12.88;4.07;;;;;;;;;;5051993;28;20118;-64
2022/12/27 06:32:34;;;;;;;18.35;3.92;;;;;;;;;;5050677;28;20040;-73
2022/12/27 06:35:00;;;;;;;16.83;4.68;;;;;;;;;;5053621;28;20054;-63
2022/12/27 06:37:26;;;;;;;14.73;3.45;;;;;;;;;;5049940;28;20040;-63
2022/12/27 06:39:52;;;;;;;10.93;3.40;;;;;;;;;;5045716;28;20049;-65
2022/12/27 06:42:18;;;;;;;15.98;3.20;;;;;;;;;;5041554;28;20103;-63
2022/12/27 06:44:44;;;;;;;12.02;3.33;;;;;;;;;;5047412;28;20136;-65
2022/12/27 06:47:10;;;;;;;18.30;3.92;;;;;;;;;;5078616;28;20479;-71
2022/12/27 06:49:36;;;;;;;22.42;4.03;;;;;;;;;;5043660;28;20437;-71
2022/12/27 06:52:03;;;;;;;12.02;4.32;;;;;;;;;;5038552;28;20452;-63
2022/12/27 06:54:29;;;;;;;18.17;5.60;;;;;;;;;;5046527;28;20044;-64
2022/12/27 06:56:55;;;;;;;15.88;5.47;;;;;;;;;;5065503;28;20447;-63
2022/12/27 06:59:22;;;;;;;12.95;4.30;;;;;;;;;;5043875;28;20041;-66
2022/12/27 07:01:48;;;;;;;14.75;3.60;;;;;;;;;;5040138;28;20447;-63
2022/12/27 07:04:14;;;;;;;20.00;3.60;;;;;;;;;;5040194;28;20052;-63
2022/12/27 07:06:40;;;;;;;14.40;3.58;;;;;;;;;;5044321;28;20049;-65
2022/12/27 07:09:07;;;;;;;18.95;4.32;;;;;;;;;;5076147;28;20494;-63
2022/12/27 07:11:34;;;;;;;14.20;4.07;;;;;;;;;;5046990;28;20045;-66
2022/12/27 07:14:00;;;;;;;17.30;3.78;;;;;;;;;;5049647;28;20525;-63
2022/12/27 07:16:27;;;;;;;19.73;3.67;;;;;;;;;;5050439;28;20049;-63
2022/12/27 07:18:57;;;;;;;14.50;3.70;;;3.80;99.90;;;;;;5051508;28;20114;-63
2022/12/27 07:21:25;;;;;;;16.92;3.97;;;3.40;99.90;;;;;;5050765;28;20403;-63
2022/12/27 07:23:52;;;;;;;15.77;3.90;;;;;;;;;;5048640;28;20076;-65
2022/12/27 07:26:19;;;;;;;16.65;3.97;;;;;;;;;;5050045;28;20044;-64
2022/12/27 07:28:46;;;;;;;23.15;3.60;;;;;;;;;;5051316;28;20053;-64
2022/12/27 07:31:13;;;;;;;13.32;3.13;;;;;;;;;;5050204;28;20052;-64
2022/12/27 07:33:39;;;;;;;23.95;4.65;;;3.40;99.90;;;;;;5040460;28;20598;-64
2022/12/27 07:36:12;;;;;;;16.92;3.85;;;3.20;99.90;;;;;;5041405;28;20041;-65
2022/12/27 07:38:38;;;;;;;13.50;4.07;;;3.30;99.90;;;;;;5060586;28;20045;-65
2022/12/27 07:41:04;;;;;;;14.23;3.65;;;3.20;99.90;;;;;;5048861;28;20068;-64
2022/12/27 07:43:33;;;;;;;13.68;3.25;;;3.20;99.90;;;;;;5045318;28;20045;-65
2022/12/27 07:46:07;;;;;;;14.18;3.45;;;3.20;99.90;;;;;;5046516;28;20548;-65
2022/12/27 07:48:33;;;;;;;15.82;3.53;;;3.20;99.90;;;;;;5046742;28;20076;-63
2022/12/27 07:51:00;;;;;;;16.30;4.03;;;3.20;99.90;;;;;;5039659;28;20053;-63
2022/12/27 07:53:25;;;;;;;16.95;3.80;;;3.30;99.90;;;;;;5037110;28;20046;-62
2022/12/27 07:55:52;;;;;;;17.80;3.45;;;3.20;99.90;;;;;;5033829;28;20041;-64
2022/12/27 07:58:18;;;;;;;15.07;4.55;;;3.10;99.90;;;;;;5045814;28;20458;-63
2022/12/27 08:00:49;;;;;;;13.35;3.35;;;3.10;99.90;;;;;;5050403;28;20494;-75
2022/12/27 08:03:15;;;;;;;14.50;3.88;;;3.10;99.90;;;;;;5040142;28;20049;-63
2022/12/27 08:05:45;;;;;;;13.95;3.10;;;3.20;99.90;;;;;;5033136;28;20050;-66
2022/12/27 08:08:14;;;;;;;13.50;3.45;;;3.10;99.90;;;;;;5078517;28;20124;-63
2022/12/27 08:10:40;;;;;;;9.30;2.72;;;3.10;99.90;;;;;;5042988;28;20045;-63
2022/12/27 08:13:05;;;;;;;15.63;3.80;;;3.20;99.90;;;;;;5044936;28;20051;-68
2022/12/27 08:15:32;;;;;;;15.45;3.92;;;3.20;99.90;;;;;;5060610;28;20100;-64
2022/12/27 08:17:57;;;;;;;11.32;3.17;;;3.20;99.90;;;;;;5046576;28;20052;-63
2022/12/27 08:20:23;;;;;;;14.55;3.47;;;3.20;99.90;;;;;;5053236;28;20511;-63
2022/12/27 08:22:49;;;;;;;11.82;3.42;;;3.20;99.90;;;;;;5046021;28;20041;-68
2022/12/27 08:25:14;;;;;;;15.95;3.63;;;3.20;99.90;;;;;;5046705;28;20433;-63
2022/12/27 08:27:40;;;;;;;13.38;3.20;;;3.20;99.90;;;;;;5045706;28;20060;-63
2022/12/27 08:30:07;;;;;;;14.93;3.42;;;3.20;99.90;;;;;;5043985;28;20060;-66
2022/12/27 08:32:33;;;;;;;28.88;4.28;;;3.20;99.90;;;;;;5047965;28;20482;-65
2022/12/27 08:34:58;;;;;;;12.32;3.30;;;3.40;99.90;;;;;;5083527;28;20045;-65
2022/12/27 08:37:24;;;;;;;11.82;3.17;;;3.20;99.90;;;;;;5086184;28;20052;-63
2022/12/27 08:39:50;;;;;;;16.02;4.13;;;3.20;99.90;;;;;;5046444;28;20057;-74
2022/12/27 08:42:15;;;;;;;18.83;3.95;;;3.20;99.90;;;;;;5048531;28;20165;-63
2022/12/27 08:44:41;;;;;;;16.30;3.72;;;3.20;99.90;;;;;;5052535;28;20053;-64
2022/12/27 08:47:07;;;;;;;18.20;3.83;;;3.30;99.90;;;;;;5082715;28;20131;-63
2022/12/27 08:49:32;;;;;;;12.73;3.70;;;3.30;99.90;;;;;;5049205;28;20519;-63
2022/12/27 08:51:58;;;;;;;16.25;4.03;;;3.30;99.90;;;;;;5045943;28;20050;-63
2022/12/27 08:54:24;;;;;;;18.17;4.53;;;3.40;99.90;;;;;;5049423;28;20052;-63
2022/12/27 08:56:49;;;;;;;15.35;3.95;;;3.30;99.90;;;;;;5046316;28;20045;-63
2022/12/27 08:59:15;;;;;;;15.60;3.78;;;3.30;99.90;;;;;;5048181;28;20041;-65
2022/12/27 09:01:41;;;;;;;14.68;4.10;;;3.40;99.90;;;;;;5051721;28;20071;-66
2022/12/27 09:04:07;;;;;;;21.08;4.40;;;3.40;99.90;;;;;;5059456;28;20114;-67
2022/12/27 09:06:32;;;;;;;12.82;3.83;;;3.40;99.90;;;;;;5066849;28;20528;-65
2022/12/27 09:09:00;;;;;;;11.38;3.63;;;3.50;99.90;;;;;;5027591;28;20041;-65
2022/12/27 09:11:32;;;;;;;16.27;4.10;;;3.50;99.90;;;;;;5049655;28;20166;-67
2022/12/27 09:13:59;;;;;;;15.65;3.67;;;3.50;99.90;;;;;;5040092;28;20069;-67
2022/12/27 09:16:27;;;;;;;13.98;3.85;;;3.50;99.90;;;;;;5053287;28;20033;-66
2022/12/27 09:18:55;;;;;;;15.55;3.72;;;3.60;99.90;;;;;;5052961;28;20066;-67
2022/12/27 09:21:23;;;;;;;15.48;4.05;;;3.70;99.90;;;;;;5044643;28;20125;-65
2022/12/27 09:23:49;;;;;;;22.60;3.47;;;3.70;99.90;;;;;;5044925;28;20447;-65
2022/12/27 09:26:21;;;;;;;16.83;3.95;;;3.80;99.90;;;;;;5045481;28;20045;-63
2022/12/27 09:28:48;;;;;;;15.98;3.88;;;4.60;99.90;;;;;;5042576;28;20052;-64
2022/12/27 09:31:15;;;;;;;19.70;4.07;;;3.90;99.90;;;;;;5032612;28;20049;-66
2022/12/27 09:33:41;;;;;;;18.85;3.63;;;3.90;99.90;;;;;;5047404;28;20045;-66
2022/12/27 09:36:13;;;;;;;15.00;4.22;;;4.00;99.90;;;;;;5040479;28;20498;-68
2022/12/27 09:38:39;;;;;;;18.77;4.13;;;4.10;99.90;;;;;;5038104;28;20095;-65
2022/12/27 09:41:12;;;;;;;16.67;3.72;;;4.10;99.90;;;;;;5046349;28;20509;-67
2022/12/27 09:43:56;;;;;;;15.00;3.75;;;4.10;99.90;;;;;;5044366;28;20521;-65
2022/12/27 09:46:38;;;;;;;15.90;4.03;;;4.20;99.90;;;;;;5042390;28;20043;-65
2022/12/27 09:49:05;;;;;;;11.88;3.22;;;4.20;99.90;;;;;;5051320;28;20163;-65
2022/12/27 09:51:40;;;;;;;9.13;3.13;;;4.30;99.90;;;;;;5046252;28;20514;-64
2022/12/27 09:54:18;;;;;;;16.75;3.72;;;4.40;99.90;;;;;;5074835;28;20079;-67
2022/12/27 09:56:43;;;;;;;15.52;4.05;;;4.30;99.90;;;;;;5033663;28;20077;-65
2022/12/27 09:59:28;;;;;;;22.25;4.47;;;4.40;99.90;;;;;;5073043;28;20552;-64
2022/12/27 10:01:54;;;;;;;11.40;3.95;;;4.40;99.90;;;;;;5035328;28;20050;-64
2022/12/27 10:04:20;;;;;;;15.73;3.88;;;4.40;99.90;;;;;;5077141;28;20850;-75
2022/12/27 10:06:48;;;;;;;18.70;3.63;;;4.70;99.90;;;;;;5051439;28;20047;-64
2022/12/27 10:09:32;;;;;;;13.20;3.60;;;4.50;99.90;;;;;;5036934;28;20045;-64
2022/12/27 10:12:24;;;;;;;14.10;4.13;;;4.50;99.90;;;;;;5044248;28;20080;-64
2022/12/27 10:15:01;;;;;;;12.15;3.33;;;4.50;99.90;;;;;;5051511;28;20037;-63
2022/12/27 10:17:52;;;;;;;16.77;3.78;;;4.60;99.90;;;;;;5053906;28;20052;-63
2022/12/27 10:20:24;;;;;;;14.15;3.25;;;4.70;99.90;;;;;;5051488;28;20390;-64
2022/12/27 10:22:55;;;;;;;11.23;3.63;;;4.70;99.90;;;;;;5049196;28;20049;-64
2022/12/27 10:25:23;;;;;;;13.48;3.33;;;4.80;99.90;;;;;;5040039;28;20052;-64
2022/12/27 10:27:53;;;;;;;14.18;4.10;;;4.80;99.90;;;;;;5034286;28;20057;-65
2022/12/27 10:30:21;;;;;;;12.65;3.35;;;4.80;99.90;;;;;;5031417;28;20096;-64
2022/12/27 10:32:47;;;;;;;10.88;3.40;;;4.90;99.90;;;;;;5031883;28;20073;-64
2022/12/27 10:35:16;;;;;;;18.45;4.28;;;5.00;99.90;;;;;;5035986;28;20072;-65
2022/12/27 10:37:42;;;;;;;9.88;3.25;;;5.00;99.90;;;;;;5037873;28;20057;-65
2022/12/27 10:40:22;;;;;;;13.80;3.33;;;5.10;99.90;;;;;;5031227;28;20064;-69
2022/12/27 10:43:04;;;;;;;12.35;3.25;;;5.10;99.90;;;;;;5031981;28;20087;-65
2022/12/27 10:45:33;;;;;;;14.43;4.18;;;5.20;99.90;;;;;;5046486;28;20510;-65
2022/12/27 10:48:19;;;;;;;17.05;3.47;;;5.20;99.90;;;;;;5048333;28;20040;-64
2022/12/27 10:51:00;;;;;;;8.85;2.90;;;5.30;99.90;;;;;;5037828;28;20124;-65
2022/12/27 10:53:44;;;;;;;18.42;3.70;;;5.40;99.90;;;;;;5042879;28;20103;-65
2022/12/27 10:56:27;;;;;;;11.60;3.10;;;5.40;99.90;;;;;;5036796;28;21713;-70
2022/12/27 10:59:11;;;;;;;14.90;3.33;;;5.50;99.90;;;;;;5054635;28;20132;-64
2022/12/27 11:01:37;;;;;;;14.45;3.35;;;5.60;99.90;;;;;;5038119;28;20120;-64
2022/12/27 11:04:11;;;;;;;7.72;2.63;;;5.60;99.90;;;;;;5033978;28;20491;-64
2022/12/27 11:06:38;;;;;;;7.78;2.83;;;5.70;99.90;;;;;;5036057;28;20183;-67
2022/12/27 11:09:25;;;;;;;15.55;3.10;;;5.70;99.90;;;;;;5041074;28;20051;-63
2022/12/27 11:12:08;;;;;;;11.60;3.22;;;5.80;99.90;;;;;;5046245;28;20525;-65
2022/12/27 11:14:36;;;;;;;13.63;2.87;;;5.90;99.90;;;;;;5050188;28;20060;-65
2022/12/27 11:17:06;;;;;;;16.25;3.10;;;6.00;99.90;;;;;;5050357;28;20048;-65
2022/12/27 11:19:32;;;;;;;9.48;2.85;;;6.00;99.90;;;;;;5059900;28;20032;-65
2022/12/27 11:22:04;;;;;;;13.88;3.03;;;6.10;99.90;;;;;;5040827;28;20052;-65
2022/12/27 11:24:30;;;;;;;8.95;2.55;;;6.10;99.90;;;;;;5079059;28;20053;-68
2022/12/27 11:26:58;;;;;;;12.60;2.90;;;6.20;99.90;;;;;;5073303;28;20040;-65
2022/12/27 11:29:26;;;;;;;13.23;3.05;;;6.20;99.90;;;;;;5043745;28;20391;-64
2022/12/27 11:31:53;;;;;;;12.55;3.25;;;6.20;99.90;;;;;;5044173;28;20045;-65
2022/12/27 11:34:35;;;;;;;11.20;2.78;;;6.20;99.90;;;;;;5079516;28;20052;-64
2022/12/27 11:37:13;;;;;;;10.30;2.35;;;6.30;99.90;;;;;;5030961;28;20502;-64
2022/12/27 11:39:41;;;;;;;7.93;2.55;;;6.30;99.90;;;;;;5042703;28;20110;-64
2022/12/27 11:42:14;;;;;;;8.85;2.55;;;6.30;99.90;;;;;;5046274;28;20076;-64
2022/12/27 11:44:45;;;;;;;15.63;2.92;;;6.30;99.90;;;;;;5045088;28;20540;-66
2022/12/27 11:47:37;;;;;;;13.95;2.72;;;6.30;99.90;;;;;;5040323;28;20554;-67
2022/12/27 11:50:35;;;;;;;14.60;3.15;;;6.20;99.90;;;;;;5043861;28;20107;-64
2022/12/27 11:53:26;;;;;;;8.30;2.60;;;6.30;99.90;;;;;;5038174;28;20490;-64
2022/12/27 11:56:15;;;;;;;11.40;3.30;;;6.30;99.90;;;;;;5081218;28;20057;-65
2022/12/27 11:59:24;;;;;;;10.00;2.92;;;6.40;99.90;;;;;;5045678;28;20455;-64
2022/12/27 12:02:02;;;;;;;9.77;2.60;;;6.40;99.90;;;;;;5039829;28;20074;-64
2022/12/27 12:05:08;;;;;;;7.15;2.65;;;6.40;99.90;;;;;;5042669;28;20395;-64
2022/12/27 12:08:11;;;;;;;14.98;3.50;;;6.40;99.90;;;;;;5037021;28;20064;-64
2022/12/27 12:10:55;;;;;;;9.30;2.92;;;6.40;99.90;;;;;;5041117;28;20120;-63
2022/12/27 12:13:30;;;;;;;14.10;3.45;;;6.40;99.90;;;;;;5043139;28;20048;-64
2022/12/27 12:16:33;;;;;;;10.73;2.70;;;6.40;99.90;;;;;;5055469;28;20052;-64
2022/12/27 12:19:32;;;;;;;12.10;3.10;;;6.40;99.90;;;;;;5053698;28;20053;-64
2022/12/27 12:22:17;;;;;;;12.27;2.90;;;6.40;99.90;;;;;;5053778;28;20045;-65
2022/12/27 12:24:49;;;;;;;13.13;2.78;;;6.50;99.90;;;;;;5052202;28;20052;-64
2022/12/27 12:27:46;;;;;;;10.80;2.45;;;6.50;99.90;;;;;;5052012;28;20056;-65
2022/12/27 12:30:33;;;;;;;8.98;2.65;;;6.50;99.90;;;;;;5048783;28;20048;-64
2022/12/27 12:33:07;;;;;;;10.48;2.72;;;6.60;99.90;;;;;;5046315;28;20056;-64
2022/12/27 12:36:10;;;;;;;13.32;2.97;;;6.60;99.90;;;;;;5052839;28;20477;-64
2022/12/27 12:38:39;;;;;;;14.30;3.63;;;6.60;99.90;;;;;;5078590;28;20053;-62
2022/12/27 12:41:19;;;;;;;13.00;2.95;;;6.60;99.90;;;;;;5046270;28;20052;-64
2022/12/27 12:44:13;;;;;;;13.13;3.08;;;6.60;99.90;;;;;;5045607;28;20197;-64
2022/12/27 12:47:14;;;;;;;12.10;2.53;;;6.60;99.90;;;;;;5047037;28;20041;-63
2022/12/27 12:49:49;;;;;;;12.63;2.83;;;6.60;99.90;;;;;;5042415;28;20640;-63
2022/12/27 12:52:24;;;;;;;7.00;2.80;;;6.60;99.90;;;;;;5041431;28;20045;-63
2022/12/27 12:55:02;;;;;;;10.48;2.30;;;6.50;99.90;;;;;;5050846;28;20122;-66
2022/12/27 12:58:12;;;;;;;12.43;2.65;;;6.50;99.90;;;;;;5044376;28;20551;-63
2022/12/27 13:01:12;;;;;;;10.70;2.65;;;6.50;99.90;;;;;;5046190;28;20226;-64
2022/12/27 13:03:59;;;;;;;9.00;2.25;;;6.50;99.90;;;;;;5043258;28;20049;-64
2022/12/27 13:06:54;;;;;;;7.75;2.60;;;6.50;99.90;;;;;;5047740;28;20048;-69
2022/12/27 13:09:29;;;;;;;10.05;2.35;;;6.50;99.90;;;;;;5020900;28;20136;-66
2022/12/27 13:12:03;;;;;;;9.07;2.28;;;6.50;99.90;;;;;;5048707;28;20144;-66
2022/12/27 13:14:37;;;;;;;15.00;2.88;;;6.50;99.90;;;;;;5051785;28;20037;-65
2022/12/27 13:17:09;;;;;;;;;;;6.50;99.90;;;;;;5046474;28;20136;-66
2022/12/27 13:19:40;;;;;;;11.65;3.35;;;6.50;99.90;;;;;;5038601;28;19928;-65
2022/12/27 13:22:37;;;;;;;14.60;2.55;;;6.40;99.90;;;;;;5051627;28;20049;-64
2022/12/27 13:25:13;;;;;;;12.35;3.33;;;6.40;99.90;;;;;;5048416;28;20041;-64
2022/12/27 13:27:56;;;;;;;13.10;3.17;;;6.30;99.90;;;;;;5049843;28;20064;-65
2022/12/27 13:30:28;;;;;;;17.52;3.35;;;6.30;99.90;;;;;;5049704;28;20056;-64
2022/12/27 13:33:17;;;;;;;11.07;3.20;;;6.30;99.90;;;;;;5051170;28;20045;-63
2022/12/27 13:35:42;;;;;;;12.80;3.38;;;6.30;99.90;;;;;;5045695;28;20045;-64
2022/12/27 13:38:39;;;;;;;14.05;3.10;;;6.20;99.90;;;;;;5050228;28;20674;-65
2022/12/27 13:41:22;;;;;;;14.63;3.55;;;6.20;99.90;;;;;;5049144;28;20056;-65
2022/12/27 13:44:23;;;;;;;10.05;3.20;;;6.10;99.90;;;;;;5049055;28;20311;-64
2022/12/27 13:47:17;;;;;;;13.50;3.45;;;6.10;99.90;;;;;;5037357;28;20064;-63
2022/12/27 13:50:11;;;;;;;9.73;3.30;;;6.10;99.90;;;;;;5066160;28;20057;-65
2022/12/27 13:52:57;;;;;;;12.18;3.33;;;6.10;99.90;;;;;;5036085;28;20414;-65
2022/12/27 13:55:41;;;;;;;11.30;2.95;;;6.00;99.90;;;;;;5040342;28;20048;-64
2022/12/27 13:58:41;;;;;;;16.00;2.87;;;5.90;99.90;;;;;;5050430;28;20068;-64
2022/12/27 14:01:34;;;;;;;11.68;3.80;;;5.90;99.90;;;;;;5045448;28;20291;-65
2022/12/27 14:04:12;;;;;;;13.57;3.58;;;5.90;99.90;;;;;;5051910;28;20049;-65
2022/12/27 14:07:19;;;;;;;13.73;3.15;;;5.90;99.90;;;;;;5044320;28;20041;-69
2022/12/27 14:09:53;;;;;;;12.43;3.40;;;5.90;99.90;;;;;;5031479;28;20132;-64
2022/12/27 14:12:36;;;;;;;13.45;3.75;;;5.90;99.90;;;;;;5047055;28;20055;-64
2022/12/27 14:15:05;;;;;;;12.13;3.25;;;5.90;99.90;;;;;;5051756;28;20134;-64
2022/12/27 14:17:48;;;;;;;12.82;2.88;;;5.80;99.90;;;;;;5050340;28;20379;-72
2022/12/27 14:20:25;;;;;;;13.77;3.53;;;5.90;99.90;;;;;;5049431;28;20041;-64
2022/12/27 14:23:16;;;;;;;13.02;3.40;;;5.90;99.90;;;;;;5033959;28;20073;-65
2022/12/27 14:26:23;;;;;;;15.57;4.43;;;5.90;99.90;;;;;;5043232;28;20495;-66
2022/12/27 14:29:10;;;;;;;13.05;3.80;;;5.90;99.90;;;;;;5017302;28;20061;-65
2022/12/27 14:32:01;;;;;;;13.55;3.65;;;5.90;99.90;;;;;;5034746;28;20055;-66
2022/12/27 14:35:01;;;;;;;14.00;3.88;;;5.90;99.90;;;;;;5036719;28;20503;-64
2022/12/27 14:37:36;;;;;;;13.63;4.53;;;5.90;99.90;;;;;;5032555;28;20572;-65
2022/12/27 14:40:39;;;;;;;11.32;5.05;;;6.00;99.90;;;;;;5031467;28;20053;-65
2022/12/27 14:43:47;;;;;;;13.65;4.65;;;6.00;99.90;;;;;;5041639;28;20080;-66
2022/12/27 14:46:48;;;;;;;13.27;4.22;;;5.90;99.90;;;;;;5044985;28;20056;-69
2022/12/27 14:49:22;;;;;;;17.13;4.60;;;6.00;99.90;;;;;;5043276;28;20080;-65
2022/12/27 14:51:53;;;;;;;14.90;4.40;;;5.90;99.90;;;;;;5040744;28;20045;-65
2022/12/27 14:54:44;;;;;;;14.80;4.70;;;5.90;99.90;;;;;;5081926;28;20437;-69
2022/12/27 14:57:41;;;;;;;17.40;5.38;;;5.90;99.90;;;;;;5034586;28;20045;-65
2022/12/27 15:00:23;;;;;;;14.27;4.90;;;5.90;99.90;;;;;;5039221;28;20133;-65
2022/12/27 15:03:14;;;;;;;13.13;5.00;;;5.80;99.90;;;;;;5042855;28;20128;-65
2022/12/27 15:05:57;;;;;;;15.30;5.93;;;5.90;99.90;;;;;;5045329;28;20044;-67
2022/12/27 15:08:41;;;;;;;13.82;4.97;;;5.80;99.90;;;;;;5044591;28;20452;-68
2022/12/27 15:11:54;;;;;;;11.38;4.93;;;5.90;99.90;;;;;;5036725;28;20049;-65
2022/12/27 15:14:20;;;;;;;14.43;5.63;;;5.80;99.90;;;;;;5024162;28;20049;-67
2022/12/27 15:17:08;;;;;;;12.95;5.18;;;5.80;99.90;;;;;;5083026;28;20036;-65